Time;durP1;ratioP1;P1;durP2;ratioP2;P2;SDS_P1;SDS_P2;PMS_P1;PMS_P2;Temp;Humidity;BMP_temperature;BMP_pressure;BME280_temperature;BME280_humidity;BME280_pressure;Samples;Min_cycle;Max_cycle;Signal;HPM_P1;HPM_P2
2022/03/04 00:01:53;;;;;;;17.83;12.85;;;;;;;6.51;59.56;102099.78;4771012;29;119913;-78
2022/03/04 00:04:19;;;;;;;17.85;11.95;;;;;;;6.45;59.46;102099.38;4759448;29;119480;-78
2022/03/04 00:06:45;;;;;;;16.13;12.02;;;;;;;6.45;59.16;102112.25;4756959;29;121096;-79
2022/03/04 00:09:10;;;;;;;16.60;10.85;;;;;;;6.39;58.37;102113.78;4757192;29;122507;-78
2022/03/04 00:11:36;;;;;;;19.40;12.75;;;;;;;6.34;59.45;102108.69;4755171;29;121734;-78
2022/03/04 00:14:01;;;;;;;16.55;12.10;;;;;;;6.32;59.78;102105.59;4785473;29;119863;-78
2022/03/04 00:16:27;;;;;;;19.05;12.23;;;;;;;6.37;59.96;102111.44;4787623;29;120270;-79
2022/03/04 00:19:09;;;;;;;18.63;12.80;;;;;;;6.32;59.78;102105.59;4754327;29;122704;-78
2022/03/04 00:21:37;;;;;;;21.15;12.82;;;;;;;6.33;60.25;102107.91;4727791;29;121077;-78
2022/03/04 00:24:04;;;;;;;18.60;12.60;;;;;;;6.38;60.06;102114.94;4775019;29;119419;-77
2022/03/04 00:26:30;;;;;;;19.38;12.73;;;;;;;6.36;60.65;102103.63;4771889;29;120721;-78
2022/03/04 00:28:56;;;;;;;20.08;13.38;;;;;;;6.38;60.36;102113.00;4740773;29;122109;-77
2022/03/04 00:31:21;;;;;;;19.17;13.48;;;;;;;6.40;60.17;102112.63;4755221;29;123179;-79
2022/03/04 00:33:47;;;;;;;20.55;13.43;;;;;;;6.38;60.22;102109.47;4784680;29;120320;-79
2022/03/04 00:36:13;;;;;;;18.35;13.07;;;;;;;6.33;60.14;102105.19;4755049;29;124364;-79
2022/03/04 00:38:38;;;;;;;20.17;13.00;;;;;;;6.24;60.36;102104.78;4756579;29;120859;-79
2022/03/04 00:41:04;;;;;;;20.58;13.25;;;;;;;6.34;60.15;102114.94;4737632;29;120034;-82
2022/03/04 00:43:29;;;;;;;20.08;13.63;;;;;;;6.29;60.45;102106.34;4755817;29;123114;-81
2022/03/04 00:45:55;;;;;;;22.73;13.52;;;;;;;6.33;60.20;102120.78;4763049;29;123127;-80
2022/03/04 00:48:21;;;;;;;19.90;13.07;;;;;;;6.34;60.23;102119.59;4753706;29;122387;-80
2022/03/04 00:50:46;;;;;;;21.05;14.10;;;;;;;6.33;60.46;102124.28;4758502;29;121649;-82
2022/03/04 00:53:12;;;;;;;20.67;13.80;;;;;;;6.29;60.30;102118.03;4756350;29;121263;-79
2022/03/04 00:55:38;;;;;;;21.15;14.50;;;;;;;6.31;60.50;102104.81;4753223;29;121140;-80
2022/03/04 00:58:07;;;;;;;18.92;13.48;;;;;;;6.36;60.27;102107.16;4770706;29;120096;-82
2022/03/04 01:00:35;;;;;;;17.65;12.43;;;;;;;6.34;60.02;102109.47;4758161;29;119885;-81
2022/03/04 01:03:02;;;;;;;18.38;13.07;;;;;;;6.34;59.31;102109.47;4755835;29;120509;-82
2022/03/04 01:05:28;;;;;;;22.27;14.02;;;;;;;6.30;59.02;102114.16;4740189;29;123252;-83
2022/03/04 01:07:53;;;;;;;19.15;12.43;;;;;;;6.22;58.81;102109.84;4748684;29;119934;-83
2022/03/04 01:10:19;;;;;;;19.50;13.18;;;;;;;6.20;58.75;102116.84;4739237;29;122627;-83
2022/03/04 01:12:45;;;;;;;19.33;13.48;;;;;;;6.09;58.90;102103.19;4758659;29;120372;-83
2022/03/04 01:15:12;;;;;;;20.20;14.93;;;;;;;6.03;59.17;102100.06;4788495;29;120091;-84
2022/03/04 01:17:40;;;;;;;19.52;13.35;;;;;;;6.04;59.22;102112.53;4757877;29;119817;-84
2022/03/04 01:20:07;;;;;;;21.38;14.35;;;;;;;6.03;59.51;102102.00;4757438;29;120372;-83
2022/03/04 01:22:33;;;;;;;19.77;14.32;;;;;;;6.03;59.18;102105.50;4758556;29;119478;-83
2022/03/04 01:24:58;;;;;;;20.52;14.30;;;;;;;5.98;58.88;102092.28;4741310;29;121050;-83
2022/03/04 01:27:24;;;;;;;22.50;14.30;;;;;;;5.93;59.20;102094.59;4757499;29;119733;-81
2022/03/04 01:29:50;;;;;;;21.38;14.57;;;;;;;5.96;59.64;102096.53;4760070;29;121547;-84
2022/03/04 01:32:16;;;;;;;24.63;15.43;;;;;;;6.00;59.96;102105.50;4756037;29;120038;-83
2022/03/04 01:34:42;;;;;;;24.67;15.25;;;;;;;6.01;60.31;102105.13;4787542;29;119539;-84
2022/03/04 01:37:08;;;;;;;21.00;14.65;;;;;;;6.03;59.98;102105.50;4757824;29;122687;-85
2022/03/04 01:39:34;;;;;;;21.40;14.20;;;;;;;5.98;59.93;102102.38;4741420;29;119682;-83
2022/03/04 01:42:00;;;;;;;20.98;13.88;;;;;;;5.99;59.05;102104.72;4772381;29;121720;-81
2022/03/04 01:44:26;;;;;;;22.27;15.10;;;;;;;5.93;59.26;102102.75;4774912;29;119895;-83
2022/03/04 01:46:51;;;;;;;20.63;13.98;;;;;;;5.90;59.51;102098.84;4773616;29;119870;-83
2022/03/04 01:49:17;;;;;;;22.55;15.02;;;;;;;5.88;59.56;102100.34;4742104;29;122155;-83
2022/03/04 01:51:43;;;;;;;23.17;15.20;;;;;;;5.90;60.04;102112.44;4760956;29;122446;-83
2022/03/04 01:54:08;;;;;;;21.00;14.70;;;;;;;5.92;59.50;102109.38;4755826;29;120096;-83
2022/03/04 01:56:37;;;;;;;21.33;14.50;;;;;;;5.91;59.27;102103.13;4755528;29;120365;-83
2022/03/04 01:59:02;;;;;;;23.25;14.35;;;;;;;5.87;59.01;102102.28;4758147;29;119909;-84
2022/03/04 02:01:28;;;;;;;21.02;14.77;;;;;;;5.85;59.50;102105.41;4742462;29;122262;-83
2022/03/04 02:03:57;;;;;;;19.52;14.80;;;;;;;5.78;59.11;102091.00;4754316;29;121938;-84
2022/03/04 02:06:28;;;;;;;20.50;14.27;;;;;;;5.74;59.20;102085.53;4766324;29;119835;-83
2022/03/04 02:08:57;;;;;;;18.67;13.23;;;;;;;5.71;58.97;102082.81;4772247;29;120314;-83
2022/03/04 02:11:22;;;;;;;23.27;15.35;;;;;;;5.72;58.78;102095.25;4752520;29;123102;-84
2022/03/04 02:13:48;;;;;;;22.10;14.10;;;;;;;5.62;58.99;102082.34;4759708;29;119931;-82
2022/03/04 02:16:21;;;;;;;21.80;14.30;;;;;;;5.63;59.06;102102.97;4738632;29;122747;-82
2022/03/04 02:18:47;;;;;;;22.73;14.13;;;;;;;5.55;59.06;102085.81;4782420;29;120038;-82
2022/03/04 02:21:14;;;;;;;20.45;14.23;;;;;;;5.57;58.28;102088.94;4755754;29;119644;-83
2022/03/04 02:23:40;;;;;;;20.25;13.80;;;;;;;5.48;58.23;102081.13;4757310;29;122181;-84
2022/03/04 02:26:09;;;;;;;18.58;13.60;;;;;;;5.49;58.61;102081.91;4739825;29;126182;-83
2022/03/04 02:28:34;;;;;;;22.65;15.27;;;;;;;5.43;58.73;102080.69;4757882;29;119429;-83
2022/03/04 02:31:00;;;;;;;20.23;14.35;;;;;;;5.39;58.48;102088.06;4741647;29;122585;-83
2022/03/04 02:33:31;;;;;;;20.80;14.73;;;;;;;5.33;58.74;102089.59;4745717;29;119733;-83
2022/03/04 02:35:57;;;;;;;20.55;14.52;;;;;;;5.32;59.10;102096.97;4739577;29;119842;-82
2022/03/04 02:38:23;;;;;;;23.45;14.13;;;;;;;5.30;59.27;102091.13;4787091;29;120913;-82
2022/03/04 02:40:49;;;;;;;23.85;14.02;;;;;;;5.22;58.96;102073.22;4742046;29;121751;-83
2022/03/04 02:43:14;;;;;;;21.88;14.43;;;;;;;5.28;59.04;102093.44;4728386;29;122647;-83
2022/03/04 02:45:40;;;;;;;20.60;14.38;;;;;;;5.27;58.83;102085.66;4760025;29;121428;-84
2022/03/04 02:48:05;;;;;;;19.15;13.32;;;;;;;5.20;58.94;102083.66;4756206;29;120536;-83
2022/03/04 02:50:31;;;;;;;19.33;13.20;;;;;;;5.15;58.95;102073.16;4771382;29;122959;-83
2022/03/04 02:52:59;;;;;;;21.13;14.10;;;;;;;5.21;58.72;102088.75;4759122;29;120653;-83
2022/03/04 02:55:25;;;;;;;21.38;14.65;;;;;;;5.19;58.44;102079.38;4761177;29;119638;-83
2022/03/04 02:57:50;;;;;;;21.58;14.93;;;;;;;5.14;58.39;102085.19;4760501;29;119982;-84
2022/03/04 03:00:19;;;;;;;22.42;14.70;;;;;;;5.07;58.61;102075.03;4759833;29;119357;-83
2022/03/04 03:02:45;;;;;;;21.98;14.43;;;;;;;5.12;58.33;102091.00;4755727;29;122605;-82
2022/03/04 03:05:11;;;;;;;19.75;13.27;;;;;;;5.04;58.82;102066.88;4761170;29;119757;-81
2022/03/04 03:07:41;;;;;;;19.13;13.30;;;;;;;5.08;58.30;102081.25;4744830;29;120073;-82
2022/03/04 03:10:07;;;;;;;21.10;13.00;;;;;;;5.01;58.17;102073.06;4760873;29;119799;-82
2022/03/04 03:12:33;;;;;;;20.55;13.38;;;;;;;4.98;58.38;102079.25;4760574;29;119539;-82
2022/03/04 03:14:58;;;;;;;21.27;14.30;;;;;;;4.98;58.12;102076.53;4791445;29;120477;-83
2022/03/04 03:17:24;;;;;;;21.83;14.10;;;;;;;4.98;58.65;102076.53;4764077;29;122878;-83
2022/03/04 03:19:49;;;;;;;22.67;14.50;;;;;;;5.01;58.71;102094.81;4757908;29;123533;-82
2022/03/04 03:22:18;;;;;;;21.63;13.88;;;;;;;5.00;58.65;102095.97;4756344;29;119915;-82
2022/03/04 03:24:44;;;;;;;18.23;13.20;;;;;;;4.96;57.94;102092.44;4759416;29;122173;-82
2022/03/04 03:27:10;;;;;;;22.92;14.10;;;;;;;4.97;57.92;102094.00;4755347;29;121619;-82
2022/03/04 03:29:36;;;;;;;21.27;13.75;;;;;;;4.96;57.99;102100.59;4742574;29;122603;-82
2022/03/04 03:32:02;;;;;;;24.10;14.80;;;;;;;4.89;58.05;102093.16;4757292;29;119870;-80
2022/03/04 03:34:28;;;;;;;21.98;14.70;;;;;;;4.89;57.78;102104.03;4741627;29;121639;-82
2022/03/04 03:36:54;;;;;;;22.98;14.20;;;;;;;4.83;57.45;102100.13;4757102;29;120678;-82
2022/03/04 03:39:22;;;;;;;22.52;14.52;;;;;;;4.80;58.14;102100.88;4759446;29;120318;-80
2022/03/04 03:41:48;;;;;;;20.73;14.27;;;;;;;4.75;58.28;102102.00;4771675;29;120963;-81
2022/03/04 03:44:13;;;;;;;21.70;14.95;;;;;;;4.79;58.58;102115.63;4756643;29;120877;-80
2022/03/04 03:46:39;;;;;;;21.45;14.15;;;;;;;4.77;57.89;102113.28;4755594;29;121987;-80
2022/03/04 03:49:05;;;;;;;24.27;15.02;;;;;;;4.71;58.06;102106.59;4724842;29;122610;-80
2022/03/04 03:51:32;;;;;;;21.67;14.13;;;;;;;4.69;58.12;102100.75;4756465;29;120187;-81
2022/03/04 03:53:58;;;;;;;26.50;15.27;;;;;;;4.66;58.03;102101.50;4756531;29;122268;-81
2022/03/04 03:56:23;;;;;;;23.67;15.98;;;;;;;4.69;58.10;102111.63;4729215;29;121861;-81
2022/03/04 03:58:49;;;;;;;24.35;15.38;;;;;;;4.69;58.36;102111.63;4773381;29;120137;-80
2022/03/04 04:01:14;;;;;;;24.35;15.40;;;;;;;4.66;58.38;102106.94;4775273;29;119732;-81
2022/03/04 04:03:40;;;;;;;25.65;15.63;;;;;;;4.66;58.21;102100.72;4758944;29;119849;-82
2022/03/04 04:06:07;;;;;;;24.90;16.05;;;;;;;4.60;57.38;102100.31;4729333;29;121842;-82
2022/03/04 04:08:33;;;;;;;23.05;15.10;;;;;;;4.56;57.51;102102.22;4742402;29;122537;-80
2022/03/04 04:10:58;;;;;;;26.55;16.75;;;;;;;4.56;57.98;102103.00;4759593;29;120049;-82
2022/03/04 04:13:24;;;;;;;22.05;15.32;;;;;;;4.57;58.04;102103.78;4747009;29;121858;-82
2022/03/04 04:15:49;;;;;;;26.10;16.02;;;;;;;4.57;57.89;102107.28;4757826;29;123092;-82
2022/03/04 04:18:15;;;;;;;25.55;15.68;;;;;;;4.53;57.71;102106.47;4771518;29;119426;-81
2022/03/04 04:20:40;;;;;;;24.25;15.07;;;;;;;4.51;57.45;102105.28;4759767;29;121920;-82
2022/03/04 04:23:06;;;;;;;27.02;16.58;;;;;;;4.51;57.88;102103.34;4762220;29;123000;-82
2022/03/04 04:25:31;;;;;;;24.00;15.65;;;;;;;4.51;57.50;102100.63;4761179;29;120071;-83
2022/03/04 04:27:57;;;;;;;23.10;15.07;;;;;;;4.51;57.61;102108.78;4758536;29;122542;-82
2022/03/04 04:30:23;;;;;;;26.13;16.60;;;;;;;4.49;58.06;102099.41;4742620;29;120257;-82
2022/03/04 04:32:49;;;;;;;24.80;15.55;;;;;;;4.47;57.68;102109.88;4758426;29;119595;-82
2022/03/04 04:35:24;;;;;;;28.95;16.20;;;;;;;4.48;58.10;102103.28;4759356;29;119739;-81
2022/03/04 04:37:58;;;;;;;32.72;18.35;;;;;;;4.44;57.68;102100.53;4758327;29;121208;-82
2022/03/04 04:40:23;;;;;;;26.30;16.50;;;;;;;4.46;57.95;102102.88;4756537;29;121697;-82
2022/03/04 04:42:49;;;;;;;26.35;15.40;;;;;;;4.37;57.93;102095.03;4761856;29;120054;-82
2022/03/04 04:45:14;;;;;;;27.92;16.75;;;;;;;4.43;57.50;102104.41;4743279;29;120214;-81
2022/03/04 04:47:40;;;;;;;32.35;18.48;;;;;;;4.40;57.85;102097.00;4727488;29;123224;-82
2022/03/04 04:50:07;;;;;;;38.95;20.58;;;;;;;4.43;58.31;102098.19;4758434;29;121302;-79
2022/03/04 04:52:33;;;;;;;30.30;17.63;;;;;;;4.44;57.85;102105.97;4756877;29;120986;-81
2022/03/04 04:54:58;;;;;;;53.03;24.50;;;;;;;4.38;58.30;102090.38;4753906;29;120122;-82
2022/03/04 04:57:24;;;;;;;54.60;29.40;;;;;;;4.42;58.43;102099.34;4743605;29;121356;-78
2022/03/04 04:59:49;;;;;;;63.40;28.27;;;;;;;4.42;58.53;102105.56;4758423;29;120117;-82
2022/03/04 05:02:15;;;;;;;52.83;27.08;;;;;;;4.38;57.82;102098.53;4739829;29;122420;-82
2022/03/04 05:04:41;;;;;;;45.38;25.88;;;;;;;4.35;58.04;102096.56;4755969;29;119487;-82
2022/03/04 05:07:06;;;;;;;50.78;26.60;;;;;;;4.34;58.48;102092.28;4770811;29;121299;-80
2022/03/04 05:09:32;;;;;;;50.67;26.17;;;;;;;4.31;58.22;102085.66;4769545;29;119567;-83
2022/03/04 05:11:58;;;;;;;48.13;24.50;;;;;;;4.27;58.38;102071.28;4756262;29;119854;-82
2022/03/04 05:14:23;;;;;;;45.78;24.98;;;;;;;4.30;58.86;102084.09;4772680;29;124387;-81
2022/03/04 05:16:49;;;;;;;43.47;24.63;;;;;;;4.29;58.30;102082.53;4771738;29;119843;-82
2022/03/04 05:19:14;;;;;;;41.90;23.83;;;;;;;4.27;58.35;102085.63;4742745;29;120168;-84
2022/03/04 05:21:40;;;;;;;45.55;23.95;;;;;;;4.26;57.87;102078.63;4760047;29;120134;-82
2022/03/04 05:24:07;;;;;;;35.30;20.35;;;;;;;4.24;57.78;102080.13;4770708;29;119623;-82
2022/03/04 05:26:38;;;;;;;33.92;19.77;;;;;;;4.23;58.22;102082.06;4761453;29;122585;-83
2022/03/04 05:29:09;;;;;;;33.35;20.67;;;;;;;4.21;57.77;102078.94;4742561;29;119981;-81
2022/03/04 05:31:39;;;;;;;35.60;21.52;;;;;;;4.17;58.35;102074.63;4789551;29;119651;-81
2022/03/04 05:34:06;;;;;;;39.45;22.15;;;;;;;4.17;58.21;102070.00;4757388;29;121109;-82
2022/03/04 05:36:32;;;;;;;39.65;22.45;;;;;;;4.17;58.14;102080.84;4789224;29;119673;-82
2022/03/04 05:38:59;;;;;;;33.22;20.00;;;;;;;4.16;57.70;102089.38;4759902;29;120618;-81
2022/03/04 05:41:25;;;;;;;36.92;20.92;;;;;;;4.06;58.32;102085.41;4755372;29;122731;-81
2022/03/04 05:43:51;;;;;;;33.63;20.48;;;;;;;4.14;57.89;102099.81;4755878;29;121019;-81
2022/03/04 05:46:17;;;;;;;35.08;21.63;;;;;;;4.11;58.07;102106.78;4768453;29;119920;-83
2022/03/04 05:48:43;;;;;;;35.10;21.02;;;;;;;4.13;58.22;102112.63;4760663;29;122777;-81
2022/03/04 05:51:09;;;;;;;35.03;22.08;;;;;;;4.13;58.41;102112.63;4757604;29;121804;-82
2022/03/04 05:53:35;;;;;;;94.82;24.05;;;;;;;4.12;59.36;102104.84;4758616;29;122844;-82
2022/03/04 05:56:05;;;;;;;54.50;24.33;;;;;;;4.24;60.30;102116.22;4742307;29;121395;-82
2022/03/04 05:58:30;;;;;;;70.60;23.90;;;;;;;4.29;60.57;102110.50;4758068;29;122855;-82
2022/03/04 06:00:56;;;;;;;47.88;24.92;;;;;;;4.30;60.40;102113.97;4784463;29;120374;-83
2022/03/04 06:03:22;;;;;;;55.88;23.75;;;;;;;4.41;61.10;102123.00;4748162;29;121323;-84
2022/03/04 06:05:47;;;;;;;53.30;23.70;;;;;;;4.46;61.25;102116.47;4767121;29;119739;-81
2022/03/04 06:08:13;;;;;;;47.22;23.65;;;;;;;4.54;60.65;102131.69;4754423;29;121314;-80
2022/03/04 06:10:39;;;;;;;54.92;25.00;;;;;;;4.59;60.98;102128.63;4744274;29;121517;-79
2022/03/04 06:13:04;;;;;;;59.28;26.98;;;;;;;4.66;60.66;102136.84;4748487;29;120161;-79
2022/03/04 06:15:30;;;;;;;62.05;27.02;;;;;;;4.69;60.80;102138.03;4750573;29;120092;-83
2022/03/04 06:17:56;;;;;;;47.60;22.23;;;;;;;4.71;61.10;102141.16;4762041;29;120200;-82
2022/03/04 06:20:22;;;;;;;45.53;22.17;;;;;;;4.78;60.82;102144.75;4757167;29;120433;-83
2022/03/04 06:22:48;;;;;;;50.60;23.35;;;;;;;4.89;61.53;102159.19;4758466;29;121089;-82
2022/03/04 06:25:16;;;;;;;46.30;24.05;;;;;;;4.95;61.13;102162.34;4757168;29;121571;-82
2022/03/04 06:27:55;;;;;;;33.88;19.08;;;;;;;4.92;61.20;102155.72;4758920;29;120098;-79
2022/03/04 06:30:22;;;;;;;29.70;18.50;;;;;;;5.08;61.43;102162.88;4769477;29;121060;-81
2022/03/04 06:32:49;;;;;;;29.33;18.45;;;;;;;5.15;61.26;102165.63;4742741;29;122321;-81
2022/03/04 06:35:14;;;;;;;30.40;18.90;;;;;;;5.18;60.58;102157.50;4754328;29;120105;-81
2022/03/04 06:37:40;;;;;;;29.45;17.98;;;;;;;5.21;60.85;102164.16;4753712;29;122251;-83
2022/03/04 06:40:10;;;;;;;29.48;18.60;;;;;;;5.26;60.46;102165.72;4756132;29;122917;-81
2022/03/04 06:42:35;;;;;;;35.05;20.95;;;;;;;5.23;59.94;102162.59;4761550;29;119424;-81
2022/03/04 06:45:02;;;;;;;35.40;20.98;;;;;;;5.23;60.17;102165.31;4761854;29;121986;-77
2022/03/04 06:47:27;;;;;;;35.90;21.02;;;;;;;5.26;60.40;102163.78;4773338;29;121854;-82
2022/03/04 06:49:56;;;;;;;37.92;21.38;;;;;;;5.32;60.05;102170.44;4759368;29;121198;-81
2022/03/04 06:52:22;;;;;;;41.35;22.25;;;;;;;5.34;60.58;102168.13;4750329;29;121907;-81
2022/03/04 06:54:47;;;;;;;37.53;21.35;;;;;;;5.39;60.27;102162.31;4758760;29;119981;-82
2022/03/04 06:57:13;;;;;;;33.55;20.42;;;;;;;5.49;60.11;102177.94;4773747;29;119809;-82
2022/03/04 06:59:38;;;;;;;36.53;20.40;;;;;;;5.54;60.00;102172.16;4761636;29;120991;-81
2022/03/04 07:02:06;;;;;;;39.30;21.73;;;;;;;5.56;59.82;102177.22;4743471;29;119795;-78
2022/03/04 07:04:32;;;;;;;44.50;23.23;;;;;;;5.64;60.35;102180.75;4751983;29;119696;-81
2022/03/04 07:06:58;;;;;;;46.42;22.83;;;;;;;5.71;60.27;102187.03;4747416;29;122474;-81
2022/03/04 07:09:24;;;;;;;61.17;22.80;;;;;;;5.75;60.46;102187.06;4778599;29;119832;-81
2022/03/04 07:11:49;;;;;;;60.38;22.98;;;;;;;5.78;61.00;102192.53;4745985;29;121791;-80
2022/03/04 07:14:15;;;;;;;53.25;23.30;;;;;;;5.80;61.52;102189.41;4747561;29;123616;-80
2022/03/04 07:16:40;;;;;;;73.50;23.88;;;;;;;5.85;61.48;102195.28;4763941;29;122688;-81
2022/03/04 07:19:07;;;;;;;86.47;25.02;;;;;;;5.94;61.86;102205.88;4766403;29;119725;-81
2022/03/04 07:21:33;;;;;;;59.00;23.60;;;;;;;5.99;62.45;102197.34;4761540;29;119815;-79
2022/03/04 07:23:58;;;;;;;89.85;24.35;;;;;;;6.13;62.38;102197.38;4741183;29;122161;-81
2022/03/04 07:26:24;;;;;;;114.75;25.38;;;;;;;6.18;62.64;102185.38;4757927;29;122619;-81
2022/03/04 07:28:50;;;;;;;95.05;26.90;;;;;;;6.17;63.16;102186.53;4762002;29;119818;-81
2022/03/04 07:31:18;;;;;;;105.70;25.25;;;;;;;6.29;62.97;102197.06;4761794;29;119367;-81
2022/03/04 07:33:43;;;;;;;145.45;26.75;;;;;;;6.33;63.23;102192.41;4761118;29;120065;-81
2022/03/04 07:36:09;;;;;;;98.38;27.52;;;;;;;6.42;63.57;102200.25;4764519;29;119655;-80
2022/03/04 07:38:34;;;;;;;96.13;27.20;;;;;;;6.42;64.07;102189.34;4773777;29;123338;-79
2022/03/04 07:41:00;;;;;;;111.38;26.17;;;;;;;6.54;63.65;102191.69;4759536;29;120177;-81
2022/03/04 07:43:26;;;;;;;76.10;27.88;;;;;;;6.59;64.09;102196.78;4761345;29;119841;-81
2022/03/04 07:45:52;;;;;;;83.60;24.75;;;;;;;6.70;63.66;102205.78;4758467;29;123040;-82
2022/03/04 07:48:17;;;;;;;66.88;22.40;;;;;;;6.81;63.87;102210.47;4746140;29;119512;-82
2022/03/04 07:50:43;;;;;;;59.90;22.83;;;;;;;6.89;64.02;102210.09;4759610;29;119936;-82
2022/03/04 07:53:08;;;;;;;100.15;24.75;;;;;;;6.90;63.27;102211.66;4745186;29;121026;-81
2022/03/04 07:55:34;;;;;;;54.75;24.35;;;;;;;6.82;63.30;102207.34;4757653;29;120220;-80
2022/03/04 07:58:00;;;;;;;64.43;23.13;;;;;;;6.86;63.44;102199.97;4764112;29;122234;-81
2022/03/04 08:00:26;;;;;;;90.60;23.98;;;;;;;6.97;63.37;102206.22;4770070;29;120362;-82
2022/03/04 08:02:53;;;;;;;57.67;23.60;;;;;;;7.03;63.23;102203.88;4756755;29;119523;-82
2022/03/04 08:05:20;;;;;;;64.60;23.98;;;;;;;7.06;63.11;102200.34;4764403;29;121203;-83
2022/03/04 08:07:46;;;;;;;48.08;22.20;;;;;;;7.20;62.72;102214.03;4764084;29;120228;-82
2022/03/04 08:10:13;;;;;;;48.72;20.75;;;;;;;7.26;62.47;102209.72;4760991;29;119394;-82
2022/03/04 08:12:39;;;;;;;34.67;20.52;;;;;;;7.31;62.51;102214.00;4752565;29;122022;-81
2022/03/04 08:15:10;;;;;;;37.15;19.10;;;;;;;7.35;62.50;102209.34;4760431;29;119583;-81
2022/03/04 08:17:36;;;;;;;79.00;19.00;;;;;;;7.37;62.25;102207.78;4765582;29;120568;-80
2022/03/04 08:20:03;;;;;;;42.97;19.98;;;;;;;7.31;62.11;102200.38;4761144;29;119855;-82
2022/03/04 08:22:28;;;;;;;49.13;20.13;;;;;;;7.45;62.41;102202.31;4746657;29;122276;-79
2022/03/04 08:24:54;;;;;;;44.25;20.15;;;;;;;7.49;62.33;102200.34;4760982;29;120494;-79
2022/03/04 08:27:21;;;;;;;50.25;20.00;;;;;;;7.56;62.21;102203.84;4760588;29;120213;-80
2022/03/04 08:29:46;;;;;;;49.25;20.90;;;;;;;7.53;62.21;102201.91;4737822;29;121772;-80
2022/03/04 08:32:12;;;;;;;34.63;20.83;;;;;;;7.61;62.31;102200.75;4759755;29;121240;-81
2022/03/04 08:34:38;;;;;;;38.67;20.20;;;;;;;7.75;62.08;102210.84;4759200;29;119872;-79
2022/03/04 08:37:03;;;;;;;42.90;19.25;;;;;;;7.80;61.96;102210.44;4776039;29;119866;-78
2022/03/04 08:39:29;;;;;;;34.17;18.75;;;;;;;7.85;62.19;102210.06;4743355;29;122763;-78
2022/03/04 08:41:55;;;;;;;33.80;19.13;;;;;;;7.88;61.80;102206.53;4762254;29;119882;-79
2022/03/04 08:44:20;;;;;;;58.00;20.42;;;;;;;7.92;61.68;102199.09;4758065;29;122355;-79
2022/03/04 08:46:47;;;;;;;42.20;18.42;;;;;;;7.91;60.99;102204.97;4757224;29;120079;-79
2022/03/04 08:49:13;;;;;;;66.18;19.42;;;;;;;7.94;60.43;102218.63;4752771;29;121835;-80
2022/03/04 08:51:39;;;;;;;57.70;18.65;;;;;;;7.88;60.45;102222.16;4751950;29;119732;-80
2022/03/04 08:54:06;;;;;;;45.72;20.40;;;;;;;7.85;61.25;102226.47;4750297;29;120317;-81
2022/03/04 08:56:33;;;;;;;55.40;21.70;;;;;;;7.86;61.13;102233.47;4753620;29;120288;-80
2022/03/04 08:58:59;;;;;;;46.72;19.92;;;;;;;7.82;61.19;102219.06;4763118;29;120097;-80
2022/03/04 09:01:25;;;;;;;42.42;20.40;;;;;;;7.85;61.27;102229.19;4744883;29;120549;-79
2022/03/04 09:03:50;;;;;;;48.00;19.95;;;;;;;7.95;61.07;102236.56;4764785;29;120529;-80
2022/03/04 09:06:16;;;;;;;40.53;20.15;;;;;;;7.94;61.24;102234.22;4764578;29;120387;-79
2022/03/04 09:08:41;;;;;;;33.08;21.65;;;;;;;7.90;61.52;102233.47;4754495;29;119998;-81
2022/03/04 09:11:07;;;;;;;44.35;21.20;;;;;;;7.87;62.12;102235.03;4750578;29;119925;-79
2022/03/04 09:13:33;;;;;;;39.20;21.25;;;;;;;7.93;61.73;102233.44;4757855;29;120283;-79
2022/03/04 09:16:02;;;;;;;40.22;21.77;;;;;;;8.03;61.66;102248.25;4771189;29;119553;-80
2022/03/04 09:18:28;;;;;;;34.97;20.52;;;;;;;8.05;61.59;102245.16;4750855;29;119927;-80
2022/03/04 09:20:54;;;;;;;43.70;21.52;;;;;;;8.06;62.13;102241.25;4755106;29;119892;-80
2022/03/04 09:23:20;;;;;;;43.88;21.98;;;;;;;8.12;62.41;102234.97;4791925;29;119821;-80
2022/03/04 09:25:46;;;;;;;31.42;21.58;;;;;;;8.15;62.26;102225.19;4770124;29;119663;-80
2022/03/04 09:28:13;;;;;;;38.35;19.83;;;;;;;8.30;61.82;102229.44;4757600;29;120579;-79
2022/03/04 09:30:38;;;;;;;32.50;20.75;;;;;;;8.37;61.70;102234.13;4771904;29;123135;-80
2022/03/04 09:33:04;;;;;;;30.50;19.67;;;;;;;8.42;61.89;102231.75;4756962;29;119764;-80
2022/03/04 09:35:32;;;;;;;27.20;19.63;;;;;;;8.48;62.00;102234.84;4757438;29;121295;-79
2022/03/04 09:38:01;;;;;;;28.85;20.05;;;;;;;8.59;62.04;102230.13;4756654;29;119782;-80
2022/03/04 09:40:27;;;;;;;27.92;19.38;;;;;;;8.70;61.77;102227.31;4758434;29;120971;-80
2022/03/04 09:42:54;;;;;;;26.05;18.77;;;;;;;8.83;61.98;102236.63;4744336;29;121820;-80
2022/03/04 09:45:20;;;;;;;29.05;19.05;;;;;;;8.92;61.51;102236.94;4775716;29;120029;-79
2022/03/04 09:47:46;;;;;;;22.80;17.55;;;;;;;8.98;60.72;102234.56;4758263;29;121163;-79
2022/03/04 09:50:16;;;;;;;26.23;19.13;;;;;;;9.09;61.04;102240.75;4771851;29;119771;-80
2022/03/04 09:52:42;;;;;;;25.90;19.17;;;;;;;9.14;61.01;102243.06;4738157;29;120515;-79
2022/03/04 09:55:08;;;;;;;25.77;17.42;;;;;;;9.17;60.98;102237.56;4767234;29;119801;-79
2022/03/04 09:57:35;;;;;;;25.40;18.17;;;;;;;9.17;60.53;102231.31;4743914;29;121378;-79
2022/03/04 10:00:04;;;;;;;27.17;18.42;;;;;;;9.19;60.18;102228.94;4756249;29;119729;-80
2022/03/04 10:02:39;;;;;;;25.48;17.73;;;;;;;9.17;60.28;102234.81;4774501;29;121940;-79
2022/03/04 10:05:05;;;;;;;22.48;17.02;;;;;;;9.17;60.99;102234.03;4773037;29;124479;-80
2022/03/04 10:07:41;;;;;;;21.65;16.75;;;;;;;9.17;60.65;102231.31;4794136;29;120729;-79
2022/03/04 10:10:16;;;;;;;22.95;17.45;;;;;;;9.11;60.38;102225.50;4754274;29;123922;-79
2022/03/04 10:12:47;;;;;;;25.05;17.77;;;;;;;9.14;61.55;102243.06;4743654;29;119805;-80
2022/03/04 10:15:13;;;;;;;23.67;17.13;;;;;;;9.22;61.38;102241.81;4757206;29;119708;-80
2022/03/04 10:17:38;;;;;;;24.50;16.77;;;;;;;9.30;61.12;102250.78;4757643;29;123683;-79
2022/03/04 10:20:12;;;;;;;27.95;19.88;;;;;;;9.35;61.53;102231.19;4756921;29;119901;-79
2022/03/04 10:22:45;;;;;;;22.10;16.42;;;;;;;9.61;61.37;102260.69;4760026;29;119762;-79
2022/03/04 10:25:24;;;;;;;19.00;15.17;;;;;;;9.77;60.32;102262.91;4762333;29;123282;-78
2022/03/04 10:27:52;;;;;;;25.42;17.65;;;;;;;9.79;59.41;102261.31;4753775;29;121298;-79
2022/03/04 10:30:30;;;;;;;27.52;19.13;;;;;;;9.75;58.82;102260.56;4760326;29;121917;-78
2022/03/04 10:33:07;;;;;;;33.53;22.00;;;;;;;9.75;59.58;102260.56;4758731;29;121167;-79
2022/03/04 10:35:33;;;;;;;36.50;23.38;;;;;;;9.75;58.48;102266.06;4758747;29;119695;-79
2022/03/04 10:37:59;;;;;;;31.02;22.67;;;;;;;9.73;57.95;102265.69;4788770;29;119873;-79
2022/03/04 10:40:34;;;;;;;35.80;26.85;;;;;;;9.62;57.01;102261.47;4758003;29;120357;-79
2022/03/04 10:43:04;;;;;;;46.13;30.42;;;;;;;9.47;57.30;102266.31;4760452;29;121896;-79
2022/03/04 10:45:31;;;;;;;62.05;34.53;;;;;;;9.39;57.79;102271.03;4760180;29;123178;-79
2022/03/04 10:47:58;;;;;;;57.22;33.90;;;;;;;9.37;57.74;102264.41;4761680;29;119794;-79
2022/03/04 10:50:34;;;;;;;52.90;32.33;;;;;;;9.35;58.43;102266.78;4761489;29;122358;-79
2022/03/04 10:53:19;;;;;;;77.35;38.15;;;;;;;9.26;58.34;102261.00;4742492;29;119751;-79
2022/03/04 10:55:57;;;;;;;98.80;45.90;;;;;;;9.34;59.07;102270.69;4773059;29;120308;-79
2022/03/04 10:58:22;;;;;;;56.45;29.45;;;;;;;9.37;59.31;102269.88;4755545;29;120242;-79
2022/03/04 11:01:02;;;;;;;25.67;14.48;;;;;;;9.41;58.42;102267.91;4759567;29;119782;-79
2022/03/04 11:03:31;;;;;;;28.60;17.45;;;;;;;9.35;57.90;102273.03;4760372;29;119643;-79
2022/03/04 11:05:59;;;;;;;25.15;15.20;;;;;;;9.30;58.36;102268.00;4785737;29;120662;-79
2022/03/04 11:08:28;;;;;;;18.17;12.95;;;;;;;9.31;59.50;102263.28;4761067;29;120072;-79